createdAt,value
2023-04-07T00:04:22.249Z,101505.22
2023-04-07T00:09:25.703Z,101513.41
2023-04-07T00:14:28.734Z,101520.53
2023-04-07T00:19:34.419Z,101530.09
2023-04-07T00:24:37.883Z,101528.22
2023-04-07T00:29:41.200Z,101518.66
2023-04-07T00:34:46.074Z,101518.47
2023-04-07T00:39:55.819Z,101511.28
2023-04-07T00:44:58.915Z,101523.09
2023-04-07T00:50:05.080Z,101516.78
2023-04-07T00:55:09.146Z,101524.72
2023-04-07T01:00:16.376Z,101523.09
2023-04-07T01:05:26.642Z,101519.50
2023-04-07T01:10:39.118Z,101523.81
2023-04-07T01:15:56.378Z,101527.41
2023-04-07T01:21:08.855Z,101524.72
2023-04-07T01:26:25.606Z,101531.00
2023-04-07T01:31:30.614Z,101524.63
2023-04-07T01:36:34.883Z,101528.50
2023-04-07T01:41:39.789Z,101533.75
2023-04-07T01:46:44.467Z,101533.63
2023-04-07T01:51:50.710Z,101540.50
2023-04-07T01:56:53.764Z,101543.84
2023-04-07T02:01:59.268Z,101531.94
2023-04-07T02:07:07.589Z,101539.97
2023-04-07T02:12:18.239Z,101539.63
2023-04-07T02:17:36.227Z,101540.19
2023-04-07T02:22:40.396Z,101532.81
2023-04-07T02:27:43.772Z,101540.72
2023-04-07T02:32:48.992Z,101534.25
2023-04-07T02:37:52.323Z,101548.41
2023-04-07T02:42:55.510Z,101543.00
2023-04-07T02:48:00.559Z,101546.78
2023-04-07T02:53:03.670Z,101544.72
2023-04-07T02:58:06.887Z,101548.41
2023-04-07T03:03:17.371Z,101551.50
2023-04-07T03:08:32.545Z,101551.31
2023-04-07T03:13:35.930Z,101552.03
2023-04-07T03:18:41.635Z,101558.00
2023-04-07T03:23:45.776Z,101547.09
2023-04-07T03:28:48.929Z,101553.72
2023-04-07T03:33:55.541Z,101550.66
2023-04-07T03:38:59.984Z,101544.16
2023-04-07T03:44:03.893Z,101548.56
2023-04-07T03:49:12.738Z,101544.06
2023-04-07T03:54:16.205Z,101531.63
2023-04-07T03:59:21.845Z,101549.25
2023-04-07T04:04:35.058Z,101544.28
2023-04-07T04:09:38.295Z,101552.66
2023-04-07T04:14:41.782Z,101551.94
2023-04-07T04:19:48.676Z,101554.03
2023-04-07T04:25:03.616Z,101556.81
2023-04-07T04:30:09.502Z,101564.56
2023-04-07T04:35:23.152Z,101576.03
2023-04-07T04:40:39.529Z,101569.78
2023-04-07T04:45:43.860Z,101567.91
2023-04-07T04:50:51.505Z,101567.53
2023-04-07T04:55:54.803Z,101582.69
2023-04-07T05:01:02.256Z,101587.03
2023-04-07T05:06:18.450Z,101588.81
2023-04-07T05:11:24.418Z,101585.22
2023-04-07T05:16:29.794Z,101592.44
2023-04-07T05:21:34.517Z,101595.72
2023-04-07T05:26:40.049Z,101605.09
2023-04-07T05:31:43.276Z,101601.75
2023-04-07T05:36:51.940Z,101607.69
2023-04-07T05:41:56.645Z,101604.63
2023-04-07T05:47:02.432Z,101614.06
2023-04-07T05:52:08.056Z,101610.28
2023-04-07T05:57:17.139Z,101622.44
2023-04-07T06:02:22.387Z,101610.03
2023-04-07T06:07:27.801Z,101619.63
2023-04-07T06:12:31.216Z,101624.88
2023-04-07T06:17:34.966Z,101628.06
2023-04-07T06:22:40.183Z,101637.00
2023-04-07T06:27:44.032Z,101634.28
2023-04-07T06:32:47.187Z,101640.44
2023-04-07T06:37:51.641Z,101630.03
2023-04-07T06:42:55.456Z,101648.31
2023-04-07T06:48:04.842Z,101647.50
2023-04-07T06:53:09.335Z,101644.56
2023-04-07T06:58:12.496Z,101661.19
2023-04-07T07:03:15.733Z,101669.97
2023-04-07T07:08:20.198Z,101667.41
2023-04-07T07:13:26.213Z,101676.91
2023-04-07T07:18:31.878Z,101685.69
2023-04-07T07:23:36.393Z,101689.41
2023-04-07T07:28:39.393Z,101683.69
2023-04-07T07:33:44.319Z,101695.00
2023-04-07T07:38:53.668Z,101704.06
2023-04-07T07:43:57.468Z,101704.38
2023-04-07T07:49:00.787Z,101712.47
2023-04-07T07:54:05.386Z,101692.75
2023-04-07T07:59:08.612Z,101702.50
2023-04-07T08:04:11.923Z,101718.00
2023-04-07T08:09:16.567Z,101723.03
2023-04-07T08:14:20.442Z,101733.97
2023-04-07T08:19:24.155Z,101736.22
2023-04-07T08:24:29.981Z,101744.34
2023-04-07T08:29:33.249Z,101761.72
2023-04-07T08:34:37.127Z,101740.72
2023-04-07T08:39:41.813Z,101754.91
2023-04-07T08:44:46.371Z,101756.38
2023-04-07T08:49:54.186Z,101762.03
2023-04-07T08:55:01.738Z,101771.38
2023-04-07T09:00:06.445Z,101765.25
2023-04-07T09:05:10.828Z,101773.91
2023-04-07T09:10:15.701Z,101770.38
2023-04-07T09:15:18.708Z,101777.34
2023-04-07T09:20:21.974Z,101778.09
2023-04-07T09:25:28.116Z,101785.03
2023-04-07T09:30:32.668Z,101786.97
2023-04-07T09:35:53.606Z,101790.81
2023-04-07T09:41:07.778Z,101787.66
2023-04-07T09:46:13.627Z,101793.75
2023-04-07T09:51:18.605Z,101785.59
2023-04-07T09:56:24.079Z,101791.41
2023-04-07T10:01:27.250Z,101794.06
2023-04-07T10:06:30.935Z,101793.91
2023-04-07T10:11:35.396Z,101790.53
2023-04-07T10:16:39.289Z,101798.03
2023-04-07T10:21:43.971Z,101804.94
2023-04-07T10:26:53.187Z,101805.75
2023-04-07T10:32:01.033Z,101817.50
2023-04-07T10:37:13.619Z,101824.16
2023-04-07T10:42:47.375Z,101810.44
2023-04-07T10:48:16.126Z,101827.13
2023-04-07T10:53:19.715Z,101816.31
2023-04-07T10:58:24.425Z,101824.53
2023-04-07T11:03:30.559Z,101833.81
2023-04-07T11:08:35.057Z,101837.34
2023-04-07T11:13:45.088Z,101839.59
2023-04-07T11:18:52.872Z,101836.34
2023-04-07T11:23:56.177Z,101840.78
2023-04-07T11:28:59.395Z,101833.59
2023-04-07T11:34:05.703Z,101845.53
2023-04-07T11:39:28.179Z,101835.38
2023-04-07T11:44:33.589Z,101847.69
2023-04-07T11:49:47.520Z,101843.84
2023-04-07T11:54:51.314Z,101852.97
2023-04-07T12:00:07.144Z,101852.69
2023-04-07T12:05:11.706Z,101864.88
2023-04-07T12:10:21.666Z,101872.03
2023-04-07T12:15:24.754Z,101857.84
2023-04-07T12:20:29.737Z,101872.22
2023-04-07T12:25:32.986Z,101881.53
2023-04-07T12:30:36.163Z,101880.31
2023-04-07T12:35:40.722Z,101884.47
2023-04-07T12:40:44.017Z,101892.84
2023-04-07T12:45:47.492Z,101894.75
2023-04-07T12:50:52.256Z,101902.66
2023-04-07T12:55:56.326Z,101890.53
2023-04-07T13:01:00.816Z,101907.69
2023-04-07T13:06:06.096Z,101914.97
2023-04-07T13:11:09.135Z,101909.53
2023-04-07T13:16:12.367Z,101915.19
2023-04-07T13:21:40.541Z,101919.28
2023-04-07T13:26:40.141Z,101919.56
2023-04-07T13:31:43.382Z,101921.25
2023-04-07T13:36:47.748Z,101922.78
2023-04-07T13:41:53.113Z,101918.19
2023-04-07T13:46:57.612Z,101911.28
2023-04-07T13:52:02.754Z,101911.75
2023-04-07T13:57:06.049Z,101917.31
2023-04-07T14:02:12.229Z,101910.50
2023-04-07T14:07:18.617Z,101921.44
2023-04-07T14:12:22.312Z,101928.56
2023-04-07T14:17:25.957Z,101935.28
2023-04-07T14:22:30.926Z,101923.28
2023-04-07T14:27:34.100Z,101930.03
2023-04-07T14:32:37.335Z,101940.78
2023-04-07T14:37:41.890Z,101935.34
2023-04-07T14:42:45.089Z,101918.66
2023-04-07T14:47:50.266Z,101918.47
2023-04-07T14:52:55.776Z,101929.22
2023-04-07T14:57:58.929Z,101939.91
2023-04-07T15:03:02.266Z,101942.38
2023-04-07T15:08:06.845Z,101947.66
2023-04-07T15:13:09.804Z,101952.44
2023-04-07T15:18:12.933Z,101949.56
2023-04-07T15:23:17.490Z,101959.16
2023-04-07T15:28:20.630Z,101964.34
2023-04-07T15:33:23.754Z,101956.94
2023-04-07T15:38:29.206Z,101947.16
2023-04-07T15:43:32.208Z,101961.91
2023-04-07T15:48:35.385Z,101964.34
2023-04-07T15:53:41.898Z,101960.28
2023-04-07T15:58:45.447Z,101967.31
2023-04-07T16:03:51.012Z,101964.44
2023-04-07T16:08:56.270Z,101972.91
2023-04-07T16:13:59.356Z,101976.91
2023-04-07T16:19:02.436Z,101980.97
2023-04-07T16:24:07.241Z,101986.38
2023-04-07T16:29:10.393Z,101990.00
2023-04-07T16:34:14.489Z,101994.09
2023-04-07T16:39:19.245Z,101999.16
2023-04-07T16:44:23.192Z,102002.44
2023-04-07T16:49:26.845Z,102003.84
2023-04-07T16:54:31.367Z,102004.28
2023-04-07T16:59:34.748Z,102002.25
2023-04-07T17:04:41.129Z,102018.78
2023-04-07T17:09:46.350Z,102018.03
2023-04-07T17:14:52.429Z,102025.97
2023-04-07T17:19:57.266Z,102038.94
2023-04-07T17:25:02.042Z,102029.97
2023-04-07T17:30:06.924Z,102037.56
2023-04-07T17:35:10.780Z,102046.81
2023-04-07T17:40:15.509Z,102055.47
2023-04-07T17:45:19.027Z,102060.03
2023-04-07T17:50:22.552Z,102067.44
2023-04-07T17:55:27.998Z,102083.38
2023-04-07T18:00:32.013Z,102072.97
2023-04-07T18:05:37.702Z,102086.16
2023-04-07T18:10:42.464Z,102090.91
2023-04-07T18:15:45.788Z,102090.56
2023-04-07T18:20:48.890Z,102096.34
2023-04-07T18:25:53.659Z,102112.94
2023-04-07T18:31:04.249Z,102109.00
2023-04-07T18:36:09.451Z,102128.66
2023-04-07T18:41:14.359Z,102131.91
2023-04-07T18:46:17.596Z,102150.72
2023-04-07T18:51:20.790Z,102146.97
2023-04-07T18:56:27.366Z,102142.06
2023-04-07T19:01:30.748Z,102161.41
2023-04-07T19:06:33.812Z,102152.34
2023-04-07T19:11:38.225Z,102167.09
2023-04-07T19:16:41.592Z,102167.81
2023-04-07T19:21:44.630Z,102170.50
2023-04-07T19:26:49.920Z,102168.91
2023-04-07T19:31:54.788Z,102174.75
2023-04-07T19:36:58.594Z,102177.81
2023-04-07T19:42:03.835Z,102183.06
2023-04-07T19:47:07.173Z,102172.38
2023-04-07T19:52:10.597Z,102181.16
2023-04-07T19:57:16.501Z,102179.88
2023-04-07T20:02:19.720Z,102193.34
2023-04-07T20:07:23.021Z,102189.22
2023-04-07T20:12:27.661Z,102186.81
2023-04-07T20:17:32.566Z,102194.34
2023-04-07T20:22:36.523Z,102198.00
2023-04-07T20:27:41.094Z,102201.41
2023-04-07T20:32:46.172Z,102201.63
2023-04-07T20:37:49.953Z,102206.88
2023-04-07T20:42:54.669Z,102211.63
2023-04-07T20:47:57.921Z,102210.78
2023-04-07T20:53:01.088Z,102221.78
2023-04-07T20:58:05.484Z,102224.63
2023-04-07T21:03:09.063Z,102223.91
2023-04-07T21:08:14.003Z,102233.25
2023-04-07T21:13:22.586Z,102236.88
2023-04-07T21:18:26.539Z,102234.09
2023-04-07T21:23:31.350Z,102236.88
2023-04-07T21:28:35.892Z,102237.59
2023-04-07T21:33:39.637Z,102241.75
2023-04-07T21:38:42.920Z,102247.78
2023-04-07T21:43:50.378Z,102239.63
2023-04-07T21:48:53.584Z,102228.63
2023-04-07T21:53:56.707Z,102238.00
2023-04-07T21:59:01.493Z,102242.13
2023-04-07T22:04:04.646Z,102250.63
2023-04-07T22:09:08.597Z,102245.84
2023-04-07T22:14:13.196Z,102252.31
2023-04-07T22:19:16.201Z,102258.06
2023-04-07T22:24:19.237Z,102260.88
2023-04-07T22:29:24.069Z,102258.06
2023-04-07T22:34:27.290Z,102247.00
2023-04-07T22:39:30.558Z,102270.38
2023-04-07T22:44:35.102Z,102269.38
2023-04-07T22:49:38.088Z,102267.06
2023-04-07T22:54:41.293Z,102271.97
2023-04-07T22:59:51.754Z,102271.97
2023-04-07T23:04:55.630Z,102273.38
2023-04-07T23:09:58.754Z,102283.78
2023-04-07T23:15:03.316Z,102275.47
2023-04-07T23:20:07.456Z,102283.69
2023-04-07T23:25:11.057Z,102275.91
2023-04-07T23:30:16.693Z,102290.03
2023-04-07T23:35:20.039Z,102286.91
2023-04-07T23:40:23.266Z,102291.88
2023-04-07T23:45:27.683Z,102295.28
2023-04-07T23:50:31.029Z,102293.88
2023-04-07T23:55:34.007Z,102282.28
